Terminal Aerodrome Forecast
Issued by NWS Portland, ME

Home | Current Version | Previous Version | Text Only | Print | Product List | Glossary On
Versions: 1 2 3 4 5 6 7 8 9 10 11 12 13 14 15 16 17
500
FTUS41 KGYX 262320
TAFCON
TAF
KCON 262320Z 2700/2724 30011KT P6SM BKN080
     FM271500 19004KT P6SM BKN100
     FM271800 16007KT 5SM -RA OVC030
     FM272000 07004KT 1 1/2SM -RA OVC011=

USA.gov is the U.S. government's official web portal to all federal, state and local government web resources and services.